Terminal Aerodrome Forecast
Issued by NWS

Home | Current Version | Previous Version | Graphics & Text | Print | Product List | Glossary On
Versions: 1 2 3 4 5 6 7 8 9 10 11 12 13 14
000
FTUS43 KMPX 221100
TAFRNH
TAF
KRNH 221120Z 2212/2312 34007KT P6SM SKC
     FM222300 04006KT P6SM SCT250
     FM230300 09005KT P6SM BKN250=

USA.gov is the U.S. government's official web portal to all federal, state and local government web resources and services.